Time;durP1;ratioP1;P1;durP2;ratioP2;P2;SDS_P1;SDS_P2;PMS_P1;PMS_P2;Temp;Humidity;BMP_temperature;BMP_pressure;BME280_temperature;BME280_humidity;BME280_pressure;Samples;Min_cycle;Max_cycle;Signal;HPM_P1;HPM_P2
2022/07/24 00:01:52;;;;;;;;;10.33;9.00;;;;;25.40;79.46;101721.13;5079043;28;58123;-70
2022/07/24 00:04:18;;;;;;;;;16.00;14.67;;;;;25.38;78.89;101722.16;5079484;28;45460;-70
2022/07/24 00:06:43;;;;;;;;;21.00;16.67;;;;;25.34;79.71;101724.94;5079125;28;57169;-70
2022/07/24 00:09:08;;;;;;;;;17.67;16.00;;;;;25.32;79.56;101734.94;5078717;28;58437;-70
2022/07/24 00:11:34;;;;;;;;;18.00;15.00;;;;;25.29;79.72;101735.03;5060996;28;56283;-71
2022/07/24 00:13:59;;;;;;;;;15.67;15.00;;;;;25.26;79.88;101727.06;5079269;28;45330;-71
2022/07/24 00:16:25;;;;;;;;;16.00;14.67;;;;;25.22;79.98;101733.50;5078866;28;57520;-72
2022/07/24 00:18:50;;;;;;;;;17.00;15.00;;;;;25.20;80.94;101729.13;5078571;28;57432;-72
2022/07/24 00:21:15;;;;;;;;;18.33;15.33;;;;;25.18;81.12;101737.25;5079001;28;54968;-71
2022/07/24 00:23:42;;;;;;;;;18.67;17.33;;;;;25.16;81.09;101731.03;5078500;28;64303;-71
2022/07/24 00:26:09;;;;;;;;;16.00;16.00;;;;;25.15;80.89;101731.97;5079031;28;45317;-70
2022/07/24 00:28:34;;;;;;;;;17.33;15.00;;;;;25.12;81.27;101726.66;5079190;28;45426;-73
2022/07/24 00:30:59;;;;;;;;;16.33;13.33;;;;;25.06;81.12;101716.97;5079294;28;45403;-71
2022/07/24 00:33:25;;;;;;;;;16.33;16.00;;;;;25.05;81.54;101717.88;5060662;28;48675;-73
2022/07/24 00:35:50;;;;;;;;;17.00;14.33;;;;;25.02;81.87;101706.28;5078981;28;45486;-70
2022/07/24 00:38:16;;;;;;;;;12.33;12.33;;;;;24.98;82.41;101700.13;5078628;28;55739;-70
2022/07/24 00:40:41;;;;;;;;;15.67;13.00;;;;;24.96;82.23;101699.25;5078389;28;55974;-71
2022/07/24 00:43:06;;;;;;;;;12.00;11.67;;;;;24.92;82.41;101683.22;5078724;28;46806;-71
2022/07/24 00:45:32;;;;;;;;;19.00;16.00;;;;;24.91;82.70;101693.13;5077970;28;62193;-70
2022/07/24 00:47:57;;;;;;;;;14.00;11.00;;;;;24.89;82.43;101695.03;5078782;28;45154;-71
2022/07/24 00:50:23;;;;;;;;;15.00;13.00;;;;;24.89;82.40;101695.03;5079069;28;45185;-71
2022/07/24 00:52:49;;;;;;;;;13.33;13.33;;;;;24.88;82.47;101692.38;5078670;28;45423;-71
2022/07/24 00:55:15;;;;;;;;;16.67;14.00;;;;;24.87;83.07;101686.06;5077548;28;62015;-71
2022/07/24 00:57:43;;;;;;;;;13.67;13.33;;;;;24.83;82.39;101681.72;5078537;28;45241;-72
2022/07/24 01:00:10;;;;;;;;;17.00;14.00;;;;;24.80;82.64;101674.59;5078747;28;45291;-71
2022/07/24 01:02:39;;;;;;;;;14.33;12.67;;;;;24.80;82.91;101673.72;5078215;28;45625;-73
2022/07/24 01:05:05;;;;;;;;;15.67;13.00;;;;;24.77;82.93;101673.84;5060245;28;45559;-71
2022/07/24 01:07:30;;;;;;;;;14.00;12.33;;;;;24.74;83.69;101676.63;5078372;28;45193;-70
2022/07/24 01:09:56;;;;;;;;;13.00;13.00;;;;;24.71;83.50;101674.91;5078321;28;48616;-71
2022/07/24 01:12:21;;;;;;;;;11.67;11.67;;;;;24.70;83.22;101678.56;5060201;28;46196;-72
2022/07/24 01:14:46;;;;;;;;;16.67;15.67;;;;;24.66;83.80;101679.63;5060310;28;45315;-70
2022/07/24 01:17:12;;;;;;;;;13.33;13.00;;;;;24.63;83.90;101682.41;5077505;28;58885;-70
2022/07/24 01:19:37;;;;;;;;;17.33;12.00;;;;;24.63;84.21;101687.81;5078543;28;45612;-71
2022/07/24 01:22:03;;;;;;;;;17.33;13.00;;;;;24.59;84.16;101677.16;5076687;28;62014;-71
2022/07/24 01:24:29;;;;;;;;;16.00;13.67;;;;;24.56;84.30;101679.03;5060131;28;45271;-70
2022/07/24 01:26:54;;;;;;;;;14.00;14.00;;;;;24.54;84.74;101678.19;5060225;28;45284;-71
2022/07/24 01:29:20;;;;;;;;;15.67;13.33;;;;;24.53;84.74;101689.94;5078365;28;45580;-70
2022/07/24 01:31:45;;;;;;;;;16.00;13.33;;;;;24.48;85.21;101686.50;5077846;28;45566;-71
2022/07/24 01:34:10;;;;;;;;;18.00;15.67;;;;;24.46;85.34;101682.97;5059946;28;45426;-71
2022/07/24 01:36:36;;;;;;;;;14.67;14.67;;;;;24.42;85.92;101675.91;5077987;28;45291;-72
2022/07/24 01:39:02;;;;;;;;;13.67;13.67;;;;;24.41;85.65;101676.84;5078183;28;45411;-72
2022/07/24 01:41:27;;;;;;;;;16.00;13.00;;;;;24.39;85.74;101684.09;5077774;28;45800;-70
2022/07/24 01:43:53;;;;;;;;;13.67;13.67;;;;;24.37;86.25;101668.91;5059048;28;61701;-70
2022/07/24 01:46:18;;;;;;;;;17.67;16.67;;;;;24.33;86.48;101684.25;5077515;28;48604;-71
2022/07/24 01:48:44;;;;;;;;;19.00;16.00;;;;;24.29;86.53;101672.72;5077039;28;57200;-71
2022/07/24 01:51:10;;;;;;;;;15.33;13.33;;;;;24.28;87.13;101672.72;5059454;28;45256;-71
2022/07/24 01:53:35;;;;;;;;;14.67;14.33;;;;;24.27;86.90;101669.16;5059365;28;45234;-70
2022/07/24 01:56:01;;;;;;;;;14.33;12.67;;;;;24.27;87.18;101669.16;5059784;28;45279;-71
2022/07/24 01:58:26;;;;;;;;;13.33;13.33;;;;;24.24;87.65;101674.66;5077509;28;45370;-70
2022/07/24 02:00:51;;;;;;;;;18.67;13.33;;;;;24.23;87.81;101677.41;5077521;28;45193;-71
2022/07/24 02:03:18;;;;;;;;;18.67;14.67;;;;;24.19;87.97;101667.66;5076821;28;65931;-70
2022/07/24 02:05:43;;;;;;;;;21.00;15.00;;;;;24.19;87.98;101676.63;5077607;28;45425;-71
2022/07/24 02:08:09;;;;;;;;;18.00;14.67;;;;;24.15;88.45;101664.16;5077240;28;52050;-71
2022/07/24 02:10:34;;;;;;;;;15.67;15.67;;;;;24.15;88.12;101668.69;5076745;28;60515;-71
2022/07/24 02:13:00;;;;;;;;;21.00;18.33;;;;;24.13;88.52;101668.75;5077488;28;45305;-71
2022/07/24 02:15:25;;;;;;;;;18.67;16.00;;;;;24.09;88.81;101650.88;5077353;28;45548;-71
2022/07/24 02:17:53;;;;;;;;;19.00;15.67;;;;;24.08;88.77;101659.03;5077555;28;45477;-71
2022/07/24 02:20:20;;;;;;;;;19.67;19.33;;;;;24.07;89.09;101651.84;5059198;28;46924;-71
2022/07/24 02:22:45;;;;;;;;;19.67;19.67;;;;;24.05;88.92;101651.91;5077394;28;45253;-71
2022/07/24 02:25:11;;;;;;;;;26.00;22.67;;;;;24.02;89.58;101650.19;5059328;28;45398;-71
2022/07/24 02:27:36;;;;;;;;;24.00;22.33;;;;;24.01;89.43;101648.41;5077316;28;45573;-71
2022/07/24 02:30:10;;;;;;;;;22.33;18.33;;;;;24.00;90.08;101646.66;5059028;28;45704;-71
2022/07/24 02:32:36;;;;;;;;;22.67;22.33;;;;;23.98;89.96;101650.34;5075976;28;45215;-70
2022/07/24 02:35:01;;;;;;;;;19.33;18.00;;;;;23.93;89.92;101642.38;5076817;28;51294;-71
2022/07/24 02:37:27;;;;;;;;;20.33;19.33;;;;;23.96;90.69;101644.97;5059266;28;45343;-73
2022/07/24 02:39:52;;;;;;;;;18.33;18.33;;;;;23.97;90.32;101648.53;5076572;28;60095;-71
2022/07/24 02:42:17;;;;;;;;;22.67;22.00;;;;;23.97;90.30;101641.38;5076956;28;56804;-72
2022/07/24 02:44:43;;;;;;;;;20.67;17.00;;;;;23.97;90.75;101637.75;5076647;28;51542;-70
2022/07/24 02:47:08;;;;;;;;;18.00;17.33;;;;;23.96;91.22;101639.56;5076849;28;45438;-73
2022/07/24 02:49:35;;;;;;;;;21.00;18.00;;;;;23.93;91.17;101631.59;5076687;28;46761;-71
2022/07/24 02:52:02;;;;;;;;;23.00;17.00;;;;;23.93;91.30;101628.91;5077122;28;45710;-71
2022/07/24 02:54:27;;;;;;;;;16.67;14.67;;;;;23.92;91.39;101628.97;5058498;28;45291;-70
2022/07/24 02:56:52;;;;;;;;;18.00;17.00;;;;;23.92;91.63;101620.88;5076469;28;45498;-70
2022/07/24 02:59:18;;;;;;;;;14.67;14.67;;;;;23.91;91.60;101619.06;5076141;28;62011;-71
2022/07/24 03:01:43;;;;;;;;;23.67;19.33;;;;;23.91;91.60;101622.66;5076096;28;60046;-70
2022/07/24 03:04:08;;;;;;;;;17.00;15.00;;;;;23.89;91.68;101624.53;5076327;28;59513;-71
2022/07/24 03:06:34;;;;;;;;;18.67;14.33;;;;;23.89;91.65;101619.13;5076289;28;50631;-71
2022/07/24 03:09:00;;;;;;;;;15.33;15.00;;;;;23.84;91.73;101612.13;5058759;28;47864;-70
2022/07/24 03:11:26;;;;;;;;;20.33;17.33;;;;;23.77;91.31;101606.91;5058585;28;45398;-71
2022/07/24 03:13:51;;;;;;;;;13.00;13.00;;;;;23.81;91.70;101602.31;5038484;28;45324;-72
2022/07/24 03:16:16;;;;;;;;;17.00;14.00;;;;;23.83;91.83;101627.41;5057241;28;54744;-73
2022/07/24 03:18:45;;;;;;;;;14.33;12.67;;;;;23.81;91.80;101613.13;5076652;28;46550;-71
2022/07/24 03:21:12;;;;;;;;;16.00;16.00;;;;;23.82;91.49;101616.69;5076643;28;45346;-71
2022/07/24 03:23:38;;;;;;;;;16.67;13.33;;;;;23.80;91.37;101622.09;5076462;28;45453;-73
2022/07/24 03:26:03;;;;;;;;;13.00;12.33;;;;;23.76;91.25;101610.56;5058480;28;50866;-71
2022/07/24 03:28:29;;;;;;;;;15.33;13.67;;;;;23.77;91.25;101616.84;5076498;28;45276;-71
2022/07/24 03:30:54;;;;;;;;;16.33;13.00;;;;;23.75;91.49;101624.06;5076394;28;45292;-72
2022/07/24 03:33:20;;;;;;;;;11.67;11.33;;;;;23.72;91.10;101616.97;5076442;28;45436;-71
2022/07/24 03:35:45;;;;;;;;;12.33;12.33;;;;;23.70;90.95;101613.44;5076124;28;56943;-70
2022/07/24 03:38:10;;;;;;;;;16.00;16.00;;;;;23.68;91.08;101611.72;5058354;28;45700;-71
2022/07/24 03:40:36;;;;;;;;;15.33;11.67;;;;;23.69;91.27;101617.06;5076005;28;64419;-72
2022/07/24 03:43:02;;;;;;;;;13.00;13.00;;;;;23.65;91.41;101603.69;5076283;28;45368;-71
2022/07/24 03:45:27;;;;;;;;;15.00;15.00;;;;;23.63;91.25;101613.66;5078942;28;45421;-70
2022/07/24 03:47:52;;;;;;;;;15.67;14.00;;;;;23.61;91.55;101604.72;5061319;28;45261;-71
2022/07/24 03:50:18;;;;;;;;;15.00;12.67;;;;;23.60;91.62;101614.63;5079797;28;47684;-72
2022/07/24 03:52:43;;;;;;;;;17.33;13.67;;;;;23.57;91.57;101611.13;5079819;28;45358;-70
2022/07/24 03:55:09;;;;;;;;;15.33;15.33;;;;;23.59;91.93;101611.94;5079361;28;45282;-70
2022/07/24 03:57:34;;;;;;;;;18.67;14.00;;;;;23.56;91.86;101609.38;5079790;28;47420;-72
2022/07/24 03:59:59;;;;;;;;;17.00;14.67;;;;;23.55;91.99;101610.31;5078880;28;59477;-71
2022/07/24 04:02:25;;;;;;;;;16.67;13.00;;;;;23.54;91.86;101614.78;5079697;28;45478;-71
2022/07/24 04:04:50;;;;;;;;;16.33;13.67;;;;;23.55;92.21;101623.78;5079374;28;45392;-70
2022/07/24 04:07:16;;;;;;;;;16.00;13.33;;;;;23.50;92.57;101619.41;5078857;28;64954;-72
2022/07/24 04:09:41;;;;;;;;;14.00;14.00;;;;;23.47;92.50;101611.41;5079407;28;45416;-71
2022/07/24 04:12:07;;;;;;;;;16.33;14.33;;;;;23.47;92.71;101624.00;5079838;28;45367;-71
2022/07/24 04:14:32;;;;;;;;;18.67;15.00;;;;;23.48;92.93;101632.03;5079343;28;45194;-69
2022/07/24 04:16:57;;;;;;;;;15.67;12.67;;;;;23.45;92.95;101629.44;5078376;28;62336;-71
2022/07/24 04:19:24;;;;;;;;;13.67;13.00;;;;;23.42;93.10;101623.25;5078410;28;63268;-71
2022/07/24 04:21:49;;;;;;;;;16.67;14.33;;;;;23.41;93.38;101627.75;5079259;28;45162;-71
2022/07/24 04:24:15;;;;;;;;;16.67;14.67;;;;;23.38;93.23;101618.88;5060985;28;45263;-70
2022/07/24 04:26:41;;;;;;;;;17.33;15.67;;;;;23.37;93.71;101618.00;5079193;28;47882;-71
2022/07/24 04:29:06;;;;;;;;;16.33;12.33;;;;;23.36;93.89;101618.06;5078345;28;57863;-70
2022/07/24 04:31:31;;;;;;;;;15.00;14.33;;;;;23.33;93.81;101618.13;5079119;28;45343;-71
2022/07/24 04:33:57;;;;;;;;;17.00;14.00;;;;;23.33;94.05;101610.94;5078393;28;54924;-71
2022/07/24 04:36:23;;;;;;;;;14.00;13.67;;;;;23.32;94.07;101622.63;5079125;28;46641;-71
2022/07/24 04:38:48;;;;;;;;;17.00;16.00;;;;;23.34;94.46;101618.09;5060053;28;59188;-70
2022/07/24 04:41:15;;;;;;;;;14.67;13.00;;;;;23.32;94.45;101617.25;5079163;28;45382;-70
2022/07/24 04:43:41;;;;;;;;;15.67;13.67;;;;;23.28;94.75;101610.19;5078797;28;45454;-70
2022/07/24 04:46:06;;;;;;;;;19.00;15.00;;;;;23.29;94.83;101616.47;5078166;28;53534;-71
2022/07/24 04:48:31;;;;;;;;;14.00;12.00;;;;;23.27;94.70;101614.69;5078684;28;45367;-71
2022/07/24 04:50:57;;;;;;;;;16.00;14.00;;;;;23.26;95.02;101614.72;5078773;28;45500;-71
2022/07/24 04:53:23;;;;;;;;;14.67;14.00;;;;;23.23;95.53;101612.16;5077911;28;49997;-71
2022/07/24 04:55:48;;;;;;;;;20.67;17.00;;;;;23.25;95.64;101616.56;5077587;28;46668;-71
2022/07/24 04:58:13;;;;;;;;;19.67;18.33;;;;;23.26;96.11;101621.00;5077972;28;54452;-71
2022/07/24 05:00:39;;;;;;;;;16.67;15.00;;;;;23.25;96.23;101619.25;5078738;28;45334;-71
2022/07/24 05:03:04;;;;;;;;;22.33;17.33;;;;;23.26;96.52;101621.00;5078758;28;45414;-70
2022/07/24 05:05:30;;;;;;;;;16.67;16.67;;;;;23.28;96.85;101620.97;5077846;28;63286;-71
2022/07/24 05:07:55;;;;;;;;;17.33;16.67;;;;;23.25;97.01;101615.66;5077904;28;60671;-70
2022/07/24 05:10:20;;;;;;;;;15.67;15.67;;;;;23.27;97.09;101617.38;5059801;28;64856;-71
2022/07/24 05:12:46;;;;;;;;;16.00;16.00;;;;;23.27;97.48;101621.88;5078810;28;45434;-71
2022/07/24 05:15:11;;;;;;;;;23.33;19.67;;;;;23.26;97.98;101615.63;5078297;28;45897;-71
2022/07/24 05:17:37;;;;;;;;;22.00;20.33;;;;;23.27;97.98;101613.81;5078301;28;45522;-70
2022/07/24 05:20:04;;;;;;;;;20.33;17.00;;;;;23.28;98.33;101618.28;5060815;28;45338;-70
2022/07/24 05:22:29;;;;;;;;;17.33;16.33;;;;;23.30;98.42;101615.53;5078476;28;45437;-71
2022/07/24 05:24:55;;;;;;;;;22.00;19.33;;;;;23.29;98.52;101614.66;5077574;28;64319;-71
2022/07/24 05:27:20;;;;;;;;;20.00;17.67;;;;;23.35;98.66;101618.97;5078022;28;45314;-72
2022/07/24 05:29:46;;;;;;;;;18.67;17.67;;;;;23.36;98.98;101616.22;5077655;28;55772;-72
2022/07/24 05:32:12;;;;;;;;;17.33;17.33;;;;;23.36;99.38;101620.75;5078484;28;45473;-71
2022/07/24 05:34:37;;;;;;;;;21.67;19.33;;;;;23.35;99.13;101609.09;5059898;28;46740;-73
2022/07/24 05:37:03;;;;;;;;;21.33;18.33;;;;;23.39;99.58;101612.59;5059902;28;45386;-70
2022/07/24 05:39:28;;;;;;;;;23.00;18.67;;;;;23.40;99.28;101615.22;5077567;28;55926;-73
2022/07/24 05:41:53;;;;;;;;;19.00;19.00;;;;;23.44;99.81;101614.22;5077287;28;59328;-70
2022/07/24 05:44:19;;;;;;;;;16.67;16.67;;;;;23.46;99.58;101620.41;5077374;28;65624;-71
2022/07/24 05:46:44;;;;;;;;;18.33;18.33;;;;;23.46;99.68;101609.63;5076558;28;63594;-72
2022/07/24 05:49:09;;;;;;;;;21.00;18.33;;;;;23.50;99.74;101622.09;5078058;28;45313;-70
2022/07/24 05:51:34;;;;;;;;;21.00;18.00;;;;;23.48;99.93;101614.97;5059198;28;54870;-70
2022/07/24 05:54:00;;;;;;;;;22.00;14.00;;;;;23.53;100.00;101613.03;5077023;28;59754;-71
2022/07/24 05:56:26;;;;;;;;;21.33;17.33;;;;;23.53;100.00;101611.22;5059431;28;45261;-72
2022/07/24 05:58:51;;;;;;;;;21.67;18.00;;;;;23.58;99.90;101611.06;5058774;28;59820;-72
2022/07/24 06:01:16;;;;;;;;;18.33;17.67;;;;;23.61;100.00;101615.50;5077560;28;45331;-70
2022/07/24 06:03:42;;;;;;;;;19.33;18.67;;;;;23.60;100.00;101609.22;5077055;28;59543;-71
2022/07/24 06:06:07;;;;;;;;;13.33;12.33;;;;;23.66;100.00;101611.78;5077558;28;45478;-72
2022/07/24 06:08:32;;;;;;;;;13.33;13.33;;;;;23.67;99.75;101609.94;5059458;28;45427;-71
2022/07/24 06:10:58;;;;;;;;;16.33;15.33;;;;;23.70;99.43;101602.66;5076796;28;58519;-71
2022/07/24 06:13:23;;;;;;;;;13.33;13.33;;;;;23.74;99.54;101606.13;5077503;28;45788;-71
2022/07/24 06:15:49;;;;;;;;;16.33;12.67;;;;;23.77;99.45;101604.22;5058835;28;45494;-70
2022/07/24 06:18:14;;;;;;;;;18.00;16.67;;;;;23.84;98.43;101604.03;5076880;28;60199;-71
2022/07/24 06:20:40;;;;;;;;;16.67;15.00;;;;;23.87;98.10;101603.94;5076807;28;55709;-70
2022/07/24 06:23:05;;;;;;;;;16.00;14.33;;;;;23.88;97.72;101597.59;5077170;28;47515;-71
2022/07/24 06:25:30;;;;;;;;;24.00;17.00;;;;;23.93;97.26;101591.13;5077105;28;45526;-71
2022/07/24 06:27:57;;;;;;;;;16.33;15.00;;;;;23.96;96.78;101595.53;5076975;28;56908;-70
2022/07/24 06:30:25;;;;;;;;;16.00;14.67;;;;;23.97;96.95;101586.50;5077520;28;45261;-70
2022/07/24 06:32:53;;;;;;;;;14.00;14.00;;;;;24.00;96.68;101579.19;5076987;28;45689;-70
2022/07/24 06:35:18;;;;;;;;;14.67;14.67;;;;;24.03;96.51;101584.50;5076890;28;45377;-71
2022/07/24 06:37:44;;;;;;;;;17.00;17.00;;;;;24.10;96.86;101592.38;5076867;28;56287;-70
2022/07/24 06:40:10;;;;;;;;;16.00;14.00;;;;;24.13;96.69;101589.56;5077275;28;46949;-71
2022/07/24 06:42:35;;;;;;;;;16.33;15.33;;;;;24.15;96.72;101585.91;5076889;28;46553;-70
2022/07/24 06:45:01;;;;;;;;;17.00;14.67;;;;;24.18;96.13;101583.13;5076594;28;59376;-70
2022/07/24 06:47:26;;;;;;;;;15.33;14.33;;;;;24.23;96.27;101582.94;5058543;28;45465;-71
2022/07/24 06:49:53;;;;;;;;;15.00;15.00;;;;;24.25;95.74;101581.97;5077098;28;45218;-70
2022/07/24 06:52:18;;;;;;;;;15.67;14.67;;;;;24.27;95.96;101574.69;5076971;28;46248;-73
2022/07/24 06:54:44;;;;;;;;;18.00;17.00;;;;;24.33;95.70;101579.00;5076287;28;45387;-73
2022/07/24 06:57:09;;;;;;;;;14.00;14.00;;;;;24.37;95.76;101585.22;5077075;28;45340;-71
2022/07/24 06:59:34;;;;;;;;;16.33;15.67;;;;;24.38;95.13;101584.28;5076686;28;47515;-71
2022/07/24 07:02:00;;;;;;;;;18.33;16.67;;;;;24.44;95.10;101587.63;5076269;28;57906;-71
2022/07/24 07:04:25;;;;;;;;;17.67;16.00;;;;;24.48;95.51;101578.50;5076602;28;48815;-71
2022/07/24 07:06:51;;;;;;;;;20.00;18.33;;;;;24.50;95.25;101576.66;5058730;28;45363;-71
2022/07/24 07:09:16;;;;;;;;;19.67;19.67;;;;;24.52;94.94;101577.47;5076401;28;53067;-73
2022/07/24 07:11:41;;;;;;;;;17.33;17.00;;;;;24.56;94.31;101579.13;5076688;28;45356;-71
2022/07/24 07:14:07;;;;;;;;;16.33;16.00;;;;;24.58;94.58;101580.88;5076618;28;45549;-70
2022/07/24 07:16:32;;;;;;;;;17.33;16.33;;;;;24.60;94.23;101579.00;5076546;28;45290;-72
2022/07/24 07:18:57;;;;;;;;;16.67;15.33;;;;;24.67;93.81;101585.97;5077261;28;45558;-73
2022/07/24 07:21:23;;;;;;;;;16.33;15.33;;;;;24.69;93.86;101584.09;5079995;28;46376;-70
2022/07/24 07:23:48;;;;;;;;;20.67;18.00;;;;;24.74;92.99;101588.38;5079893;28;45502;-72
2022/07/24 07:26:13;;;;;;;;;18.00;15.33;;;;;24.77;93.27;101582.00;5080635;28;45374;-70
2022/07/24 07:28:39;;;;;;;;;18.67;14.33;;;;;24.78;93.41;101578.38;5062068;28;45235;-70
2022/07/24 07:31:04;;;;;;;;;17.33;16.00;;;;;24.82;93.13;101582.69;5079294;28;67078;-73
2022/07/24 07:33:29;;;;;;;;;21.33;14.67;;;;;24.85;93.13;101577.19;5079217;28;62206;-71
2022/07/24 07:35:55;;;;;;;;;17.67;16.00;;;;;24.90;92.88;101583.31;5079971;28;45439;-72
2022/07/24 07:38:20;;;;;;;;;16.00;16.00;;;;;24.92;92.75;101569.72;5079630;28;59137;-71
2022/07/24 07:40:46;;;;;;;;;18.33;16.00;;;;;24.96;92.23;101577.66;5079635;28;49837;-71
2022/07/24 07:43:11;;;;;;;;;16.67;15.67;;;;;25.02;92.58;101582.84;5079747;28;45298;-71
2022/07/24 07:45:37;;;;;;;;;19.00;19.00;;;;;25.07;92.45;101580.00;5079694;28;45520;-71
2022/07/24 07:48:03;;;;;;;;;19.33;18.00;;;;;25.10;92.02;101570.91;5079005;28;55741;-71
2022/07/24 07:50:28;;;;;;;;;19.00;15.00;;;;;25.12;92.40;101575.31;5079735;28;45190;-71
2022/07/24 07:52:54;;;;;;;;;19.00;16.00;;;;;25.15;92.46;101567.09;5079562;28;45208;-71
2022/07/24 07:55:20;;;;;;;;;19.00;19.00;;;;;25.23;92.16;101572.19;5079144;28;45449;-71
2022/07/24 07:57:45;;;;;;;;;16.33;16.33;;;;;25.26;92.28;101572.09;5079350;28;49509;-73
2022/07/24 08:00:11;;;;;;;;;20.67;18.67;;;;;25.27;91.07;101563.91;5061748;28;45539;-71
2022/07/24 08:02:37;;;;;;;;;17.33;17.00;;;;;25.33;91.54;101562.81;5079631;28;45280;-71
2022/07/24 08:05:03;;;;;;;;;19.00;18.00;;;;;25.34;91.92;101561.84;5079482;28;45341;-71
2022/07/24 08:07:28;;;;;;;;;19.33;16.33;;;;;25.37;91.13;101550.94;5079552;28;45267;-70
2022/07/24 08:09:53;;;;;;;;;18.33;16.00;;;;;25.43;91.95;101553.38;5078600;28;64837;-71
2022/07/24 08:12:19;;;;;;;;;21.00;19.00;;;;;25.49;92.25;101546.84;5078819;28;59663;-71
2022/07/24 08:14:44;;;;;;;;;18.33;15.00;;;;;25.49;90.77;101550.44;5060698;28;55931;-70
2022/07/24 08:17:09;;;;;;;;;20.00;18.67;;;;;25.55;90.88;101557.44;5079225;28;45497;-70
2022/07/24 08:19:35;;;;;;;;;22.00;18.00;;;;;25.59;89.94;101554.53;5079158;28;46373;-70
2022/07/24 08:22:00;;;;;;;;;23.67;20.00;;;;;25.63;89.60;101552.59;5078631;28;50442;-70
2022/07/24 08:24:26;;;;;;;;;17.67;17.67;;;;;25.68;89.39;101553.31;5079466;28;45375;-71
2022/07/24 08:26:51;;;;;;;;;18.67;16.67;;;;;25.72;89.50;101548.63;5079485;28;45244;-71
2022/07/24 08:29:17;;;;;;;;;22.67;21.67;;;;;25.73;89.64;101550.41;5079208;28;45790;-71
2022/07/24 08:31:42;;;;;;;;;19.33;19.33;;;;;25.78;89.50;101543.91;5077390;28;53289;-71
2022/07/24 08:34:08;;;;;;;;;18.33;18.33;;;;;25.80;89.11;101550.13;5061163;28;45455;-71
2022/07/24 08:36:34;;;;;;;;;15.33;14.33;;;;;25.86;88.16;101551.69;5079232;28;45462;-71
2022/07/24 08:38:59;;;;;;;;;18.67;17.00;;;;;25.91;88.12;101548.81;5078226;28;67886;-72
2022/07/24 08:41:26;;;;;;;;;18.00;17.33;;;;;25.93;87.68;101534.25;5077941;28;65168;-71
2022/07/24 08:43:52;;;;;;;;;16.33;15.00;;;;;25.96;86.28;101536.84;5079017;28;45399;-71
2022/07/24 08:46:17;;;;;;;;;14.00;14.00;;;;;26.01;84.61;101532.13;5081654;27;45581;-73
2022/07/24 08:48:44;;;;;;;;;14.33;14.33;;;;;26.05;85.27;101531.06;5163025;22;64196;-70
2022/07/24 08:51:11;;;;;;;;;14.33;14.33;;;;;26.10;84.24;101529.03;5058334;28;45503;-70
2022/07/24 08:53:36;;;;;;;;;15.00;15.00;;;;;26.17;84.09;101529.63;5058436;28;45478;-71
2022/07/24 08:56:01;;;;;;;;;16.00;11.33;;;;;26.19;82.38;101526.84;5039926;28;58840;-71
2022/07/24 08:58:27;;;;;;;;;14.00;14.00;;;;;26.21;82.19;101525.84;5039280;28;66672;-71
2022/07/24 09:00:52;;;;;;;;;13.33;13.33;;;;;26.26;82.96;101520.22;5057582;28;60038;-71
2022/07/24 09:03:17;;;;;;;;;13.67;13.67;;;;;26.29;82.93;101520.09;5057681;28;56201;-71
2022/07/24 09:05:57;;;;;;;;;18.67;16.33;;;;;26.34;82.10;101516.25;5058362;28;45189;-69
2022/07/24 09:08:23;;;;;;;;;12.33;12.33;;;;;26.38;82.35;101512.47;5058373;28;45904;-70
2022/07/24 09:11:03;;;;;;;;;19.67;16.33;;;;;26.43;81.77;101509.59;5057976;28;45302;-71
2022/07/24 09:14:29;;;;;;;;;11.33;11.33;;;;;26.46;80.39;101512.13;5058347;28;45256;-72
2022/07/24 09:16:22;;;;;;;;;14.67;14.33;;;;;26.49;81.25;101505.72;5057796;28;45585;-70
2022/07/24 09:18:47;;;;;;;;;17.00;13.33;;;;;26.50;81.09;101504.78;5057874;28;45904;-71
2022/07/24 09:21:14;;;;;;;;;12.00;10.00;;;;;26.55;80.04;101503.59;5058009;28;45429;-70
2022/07/24 09:23:41;;;;;;;;;13.00;12.00;;;;;26.62;79.65;101509.63;5058110;28;45352;-70
2022/07/24 09:26:06;;;;;;;;;9.00;9.00;;;;;26.65;77.12;101504.09;5058406;28;45355;-72
2022/07/24 09:28:52;;;;;;;;;10.67;10.67;;;;;26.71;77.06;101495.66;5057710;28;46450;-70
2022/07/24 09:31:18;;;;;;;;;12.67;11.00;;;;;26.73;73.80;101487.47;5039778;28;45385;-71
2022/07/24 09:33:43;;;;;;;;;10.00;10.00;;;;;26.79;75.74;101484.47;5039962;28;45295;-71
2022/07/24 09:36:17;;;;;;;;;10.67;10.00;;;;;26.81;75.12;101477.16;5057872;28;45278;-71
2022/07/24 09:38:47;;;;;;;;;13.00;11.33;;;;;26.84;75.20;101471.59;5039662;28;47277;-70
2022/07/24 09:41:19;;;;;;;;;10.33;10.33;;;;;26.87;74.59;101480.47;5057632;28;45328;-72
2022/07/24 09:43:44;;;;;;;;;11.00;10.00;;;;;26.90;73.02;101469.50;5039566;28;45367;-71
2022/07/24 09:46:11;;;;;;;;;9.67;8.00;;;;;26.94;72.83;101474.75;5057489;28;45474;-70
2022/07/24 09:48:59;;;;;;;;;9.67;9.00;;;;;27.01;72.40;101474.41;5056487;28;45864;-71
2022/07/24 09:51:27;;;;;;;;;7.67;7.33;;;;;27.05;72.12;101466.97;5030102;28;45333;-71
2022/07/24 09:54:01;;;;;;;;;12.00;9.33;;;;;27.09;72.69;101465.94;5057132;28;45471;-70
2022/07/24 09:56:27;;;;;;;;;12.67;10.67;;;;;27.17;72.17;101471.00;5057319;28;45586;-71
2022/07/24 09:58:54;;;;;;;;;10.00;10.00;;;;;27.18;70.39;101462.78;5039408;28;46026;-71
2022/07/24 10:01:22;;;;;;;;;10.33;8.67;;;;;27.26;70.20;101459.69;5057083;28;45175;-71
2022/07/24 10:03:49;;;;;;;;;10.33;10.33;;;;;27.30;68.87;101454.03;5057517;28;45440;-71
2022/07/24 10:06:18;;;;;;;;;10.33;9.00;;;;;27.34;68.76;101446.63;5057453;28;45527;-73
2022/07/24 10:08:45;;;;;;;;;10.00;10.00;;;;;27.38;68.44;101457.28;5057369;28;46727;-70
2022/07/24 10:11:12;;;;;;;;;12.00;9.00;;;;;27.37;68.47;101439.22;5057227;28;45355;-71
2022/07/24 10:13:37;;;;;;;;;10.33;10.33;;;;;27.46;66.17;101456.00;5039462;28;45392;-71
2022/07/24 10:16:23;;;;;;;;;8.33;8.33;;;;;27.51;66.38;101454.81;5057080;28;45189;-71
2022/07/24 10:18:54;;;;;;;;;11.33;10.00;;;;;27.56;66.55;101446.44;5042423;28;45736;-71
2022/07/24 10:21:22;;;;;;;;;15.33;14.67;;;;;27.61;66.54;101445.25;5039191;28;45506;-72
2022/07/24 10:24:10;;;;;;;;;11.00;9.67;;;;;27.69;66.47;101439.44;5057025;28;45375;-71
2022/07/24 10:26:49;;;;;;;;;18.00;16.00;;;;;27.71;65.33;101437.56;5057291;28;46379;-71
2022/07/24 10:29:20;;;;;;;;;34.75;30.00;;;;;27.78;64.24;101449.00;5056918;28;46653;-71
2022/07/24 10:31:48;;;;;;;;;10.33;9.00;;;;;27.83;62.74;101438.78;5057219;28;45292;-71
2022/07/24 10:34:41;;;;;;;;;9.67;9.00;;;;;27.88;61.55;101437.56;5057049;28;45299;-71
2022/07/24 10:37:12;;;;;;;;;7.67;7.67;;;;;27.93;61.50;101440.06;5038826;28;45727;-70
2022/07/24 10:40:02;;;;;;;;;28.67;25.00;;;;;27.97;61.69;101436.22;5038835;28;45449;-71
2022/07/24 10:42:28;;;;;;;;;17.67;16.33;;;;;28.04;61.15;101429.50;5056812;28;45521;-71
2022/07/24 10:45:17;;;;;;;;;9.00;9.00;;;;;28.10;62.71;101423.75;5038910;28;45497;-70
2022/07/24 10:47:42;;;;;;;;;11.00;9.00;;;;;28.13;61.94;101423.59;5056009;28;45458;-72
2022/07/24 10:50:08;;;;;;;;;9.33;8.00;;;;;28.17;60.50;101419.75;5056399;28;46549;-70
2022/07/24 10:52:33;;;;;;;;;6.33;6.33;;;;;28.22;58.16;101413.19;5056568;28;47929;-72
2022/07/24 10:55:34;;;;;;;;;23.00;23.00;;;;;28.30;59.33;101416.41;5058319;28;45364;-72
2022/07/24 10:58:12;;;;;;;;;8.00;8.00;;;;;28.35;57.77;101417.06;5055431;28;45534;-71
2022/07/24 11:00:43;;;;;;;;;7.67;7.67;;;;;28.41;58.56;101412.16;5060185;28;45781;-71
2022/07/24 11:03:24;;;;;;;;;13.33;11.00;;;;;28.45;57.96;101408.31;5060121;28;45416;-71
2022/07/24 11:06:06;;;;;;;;;12.67;12.67;;;;;28.51;57.84;101404.41;5060176;28;45395;-70
2022/07/24 11:08:50;;;;;;;;;11.67;8.33;;;;;28.58;57.21;101394.06;5042370;28;45455;-71